sensor_id;sensor_type;location;lat;lon;timestamp;P1;durP1;ratioP1;P2;durP2;ratioP2
6823;SDS011;58633;49.470;11.004;2023-07-31T00:02:15;4.00;;;1.45;;
6823;SDS011;58633;49.470;11.004;2023-07-31T00:04:41;2.13;;;1.40;;
6823;SDS011;58633;49.470;11.004;2023-07-31T00:07:06;1.50;;;1.40;;
6823;SDS011;58633;49.470;11.004;2023-07-31T00:09:33;3.33;;;1.67;;
6823;SDS011;58633;49.470;11.004;2023-07-31T00:11:59;2.92;;;1.50;;
6823;SDS011;58633;49.470;11.004;2023-07-31T00:14:24;2.83;;;1.52;;
6823;SDS011;58633;49.470;11.004;2023-07-31T00:16:50;3.65;;;1.38;;
6823;SDS011;58633;49.470;11.004;2023-07-31T00:19:16;3.53;;;1.33;;
6823;SDS011;58633;49.470;11.004;2023-07-31T00:21:41;3.25;;;1.45;;
6823;SDS011;58633;49.470;11.004;2023-07-31T00:24:07;2.97;;;1.30;;
6823;SDS011;58633;49.470;11.004;2023-07-31T00:26:32;2.63;;;1.13;;
6823;SDS011;58633;49.470;11.004;2023-07-31T00:28:58;2.63;;;1.45;;
6823;SDS011;58633;49.470;11.004;2023-07-31T00:31:23;3.95;;;1.10;;
6823;SDS011;58633;49.470;11.004;2023-07-31T00:33:49;3.25;;;1.50;;
6823;SDS011;58633;49.470;11.004;2023-07-31T00:36:14;1.85;;;1.30;;
6823;SDS011;58633;49.470;11.004;2023-07-31T00:38:40;3.42;;;1.45;;
6823;SDS011;58633;49.470;11.004;2023-07-31T00:41:06;3.35;;;1.35;;
6823;SDS011;58633;49.470;11.004;2023-07-31T00:43:31;4.35;;;1.40;;
6823;SDS011;58633;49.470;11.004;2023-07-31T00:45:57;3.55;;;1.75;;
6823;SDS011;58633;49.470;11.004;2023-07-31T00:48:23;2.72;;;1.48;;
6823;SDS011;58633;49.470;11.004;2023-07-31T00:50:48;5.47;;;1.48;;
6823;SDS011;58633;49.470;11.004;2023-07-31T00:53:14;1.40;;;1.30;;
6823;SDS011;58633;49.470;11.004;2023-07-31T00:55:40;2.70;;;1.48;;
6823;SDS011;58633;49.470;11.004;2023-07-31T00:58:06;1.80;;;1.27;;
6823;SDS011;58633;49.470;11.004;2023-07-31T01:00:31;4.65;;;1.90;;
6823;SDS011;58633;49.470;11.004;2023-07-31T01:02:57;4.72;;;1.48;;
6823;SDS011;58633;49.470;11.004;2023-07-31T01:05:25;3.80;;;1.55;;
6823;SDS011;58633;49.470;11.004;2023-07-31T01:08:16;3.05;;;1.40;;
6823;SDS011;58633;49.470;11.004;2023-07-31T01:10:46;3.10;;;1.50;;
6823;SDS011;58633;49.470;11.004;2023-07-31T01:13:23;9.18;;;1.40;;
6823;SDS011;58633;49.470;11.004;2023-07-31T01:15:49;3.03;;;1.40;;
6823;SDS011;58633;49.470;11.004;2023-07-31T01:18:15;3.40;;;1.33;;
6823;SDS011;58633;49.470;11.004;2023-07-31T01:20:41;3.10;;;1.60;;
6823;SDS011;58633;49.470;11.004;2023-07-31T01:23:14;3.47;;;1.48;;
6823;SDS011;58633;49.470;11.004;2023-07-31T01:28:30;2.78;;;1.20;;
6823;SDS011;58633;49.470;11.004;2023-07-31T01:31:20;4.60;;;1.30;;
6823;SDS011;58633;49.470;11.004;2023-07-31T01:33:49;2.70;;;1.20;;
6823;SDS011;58633;49.470;11.004;2023-07-31T01:36:17;4.68;;;1.48;;
6823;SDS011;58633;49.470;11.004;2023-07-31T01:38:43;5.25;;;1.48;;
6823;SDS011;58633;49.470;11.004;2023-07-31T01:41:08;2.55;;;1.50;;
6823;SDS011;58633;49.470;11.004;2023-07-31T01:43:34;2.45;;;1.30;;
6823;SDS011;58633;49.470;11.004;2023-07-31T01:45:59;2.67;;;1.38;;
6823;SDS011;58633;49.470;11.004;2023-07-31T01:48:25;3.67;;;1.58;;
6823;SDS011;58633;49.470;11.004;2023-07-31T01:50:51;3.78;;;2.08;;
6823;SDS011;58633;49.470;11.004;2023-07-31T01:53:16;4.20;;;1.73;;
6823;SDS011;58633;49.470;11.004;2023-07-31T01:55:42;2.63;;;1.60;;
6823;SDS011;58633;49.470;11.004;2023-07-31T01:58:08;7.10;;;1.60;;
6823;SDS011;58633;49.470;11.004;2023-07-31T02:00:34;2.70;;;1.40;;
6823;SDS011;58633;49.470;11.004;2023-07-31T02:03:00;2.17;;;1.33;;
6823;SDS011;58633;49.470;11.004;2023-07-31T02:05:26;6.53;;;1.70;;
6823;SDS011;58633;49.470;11.004;2023-07-31T02:07:51;5.53;;;1.45;;
6823;SDS011;58633;49.470;11.004;2023-07-31T02:10:17;1.95;;;1.30;;
6823;SDS011;58633;49.470;11.004;2023-07-31T02:12:42;2.08;;;1.30;;
6823;SDS011;58633;49.470;11.004;2023-07-31T02:15:08;2.80;;;1.60;;
6823;SDS011;58633;49.470;11.004;2023-07-31T02:17:34;7.10;;;1.50;;
6823;SDS011;58633;49.470;11.004;2023-07-31T02:20:00;4.47;;;1.42;;
6823;SDS011;58633;49.470;11.004;2023-07-31T02:22:26;2.83;;;1.42;;
6823;SDS011;58633;49.470;11.004;2023-07-31T02:24:52;3.83;;;1.42;;
6823;SDS011;58633;49.470;11.004;2023-07-31T02:27:17;3.53;;;1.50;;
6823;SDS011;58633;49.470;11.004;2023-07-31T02:29:43;3.50;;;1.55;;
6823;SDS011;58633;49.470;11.004;2023-07-31T02:32:09;1.55;;;1.40;;
6823;SDS011;58633;49.470;11.004;2023-07-31T02:34:35;4.53;;;1.45;;
6823;SDS011;58633;49.470;11.004;2023-07-31T02:37:01;2.80;;;1.30;;
6823;SDS011;58633;49.470;11.004;2023-07-31T02:39:27;2.95;;;1.50;;
6823;SDS011;58633;49.470;11.004;2023-07-31T02:41:52;2.17;;;1.52;;
6823;SDS011;58633;49.470;11.004;2023-07-31T02:44:18;7.97;;;1.42;;
6823;SDS011;58633;49.470;11.004;2023-07-31T02:46:45;4.47;;;1.70;;
6823;SDS011;58633;49.470;11.004;2023-07-31T02:49:10;4.07;;;1.42;;
6823;SDS011;58633;49.470;11.004;2023-07-31T02:51:36;2.47;;;1.40;;
6823;SDS011;58633;49.470;11.004;2023-07-31T02:54:02;2.97;;;1.58;;
6823;SDS011;58633;49.470;11.004;2023-07-31T02:56:27;4.22;;;1.50;;
6823;SDS011;58633;49.470;11.004;2023-07-31T02:58:53;2.30;;;1.33;;
6823;SDS011;58633;49.470;11.004;2023-07-31T03:01:19;2.03;;;1.40;;
6823;SDS011;58633;49.470;11.004;2023-07-31T03:03:44;2.42;;;1.58;;
6823;SDS011;58633;49.470;11.004;2023-07-31T03:06:10;2.03;;;1.52;;
6823;SDS011;58633;49.470;11.004;2023-07-31T03:08:35;4.32;;;1.38;;
6823;SDS011;58633;49.470;11.004;2023-07-31T03:11:01;2.50;;;1.85;;
6823;SDS011;58633;49.470;11.004;2023-07-31T03:13:26;3.40;;;1.60;;
6823;SDS011;58633;49.470;11.004;2023-07-31T03:15:52;3.30;;;1.50;;
6823;SDS011;58633;49.470;11.004;2023-07-31T03:18:18;5.03;;;1.63;;
6823;SDS011;58633;49.470;11.004;2023-07-31T03:20:44;2.33;;;1.63;;
6823;SDS011;58633;49.470;11.004;2023-07-31T03:23:09;3.25;;;1.60;;
6823;SDS011;58633;49.470;11.004;2023-07-31T03:25:35;2.63;;;1.70;;
6823;SDS011;58633;49.470;11.004;2023-07-31T03:28:01;1.77;;;1.55;;
6823;SDS011;58633;49.470;11.004;2023-07-31T03:30:27;3.47;;;1.52;;
6823;SDS011;58633;49.470;11.004;2023-07-31T03:32:52;3.42;;;1.58;;
6823;SDS011;58633;49.470;11.004;2023-07-31T03:35:18;3.58;;;1.50;;
6823;SDS011;58633;49.470;11.004;2023-07-31T03:37:43;4.60;;;2.33;;
6823;SDS011;58633;49.470;11.004;2023-07-31T03:40:09;2.70;;;1.60;;
6823;SDS011;58633;49.470;11.004;2023-07-31T03:42:35;2.63;;;1.58;;
6823;SDS011;58633;49.470;11.004;2023-07-31T03:45:00;4.13;;;1.63;;
6823;SDS011;58633;49.470;11.004;2023-07-31T03:47:26;3.85;;;1.60;;
6823;SDS011;58633;49.470;11.004;2023-07-31T03:49:52;5.07;;;1.75;;
6823;SDS011;58633;49.470;11.004;2023-07-31T03:52:18;4.85;;;1.52;;
6823;SDS011;58633;49.470;11.004;2023-07-31T03:54:43;3.63;;;1.73;;
6823;SDS011;58633;49.470;11.004;2023-07-31T03:57:09;3.50;;;1.30;;
6823;SDS011;58633;49.470;11.004;2023-07-31T03:59:36;3.75;;;1.40;;
6823;SDS011;58633;49.470;11.004;2023-07-31T04:02:04;3.58;;;1.90;;
6823;SDS011;58633;49.470;11.004;2023-07-31T04:04:29;2.15;;;1.50;;
6823;SDS011;58633;49.470;11.004;2023-07-31T04:06:55;1.98;;;1.40;;
6823;SDS011;58633;49.470;11.004;2023-07-31T04:09:20;2.80;;;1.50;;
6823;SDS011;58633;49.470;11.004;2023-07-31T04:11:46;1.85;;;1.40;;
6823;SDS011;58633;49.470;11.004;2023-07-31T04:14:11;4.00;;;1.80;;
6823;SDS011;58633;49.470;11.004;2023-07-31T04:16:37;2.45;;;1.85;;
6823;SDS011;58633;49.470;11.004;2023-07-31T04:19:03;4.57;;;2.03;;
6823;SDS011;58633;49.470;11.004;2023-07-31T04:21:29;4.00;;;1.65;;
6823;SDS011;58633;49.470;11.004;2023-07-31T04:23:55;2.25;;;1.58;;
6823;SDS011;58633;49.470;11.004;2023-07-31T04:26:21;3.10;;;1.60;;
6823;SDS011;58633;49.470;11.004;2023-07-31T04:28:47;2.28;;;1.75;;
6823;SDS011;58633;49.470;11.004;2023-07-31T04:31:12;3.67;;;1.83;;
6823;SDS011;58633;49.470;11.004;2023-07-31T04:33:38;3.25;;;1.60;;
6823;SDS011;58633;49.470;11.004;2023-07-31T04:36:04;2.20;;;1.63;;
6823;SDS011;58633;49.470;11.004;2023-07-31T04:38:30;1.73;;;1.60;;
6823;SDS011;58633;49.470;11.004;2023-07-31T04:40:56;2.10;;;1.70;;
6823;SDS011;58633;49.470;11.004;2023-07-31T04:43:21;1.88;;;1.55;;
6823;SDS011;58633;49.470;11.004;2023-07-31T04:45:47;3.00;;;1.50;;
6823;SDS011;58633;49.470;11.004;2023-07-31T04:48:14;2.97;;;1.60;;
6823;SDS011;58633;49.470;11.004;2023-07-31T04:50:40;3.00;;;1.50;;
6823;SDS011;58633;49.470;11.004;2023-07-31T04:53:06;3.28;;;1.80;;
6823;SDS011;58633;49.470;11.004;2023-07-31T04:55:32;4.72;;;2.00;;
6823;SDS011;58633;49.470;11.004;2023-07-31T04:57:58;2.58;;;1.88;;
6823;SDS011;58633;49.470;11.004;2023-07-31T05:00:24;4.63;;;1.60;;
6823;SDS011;58633;49.470;11.004;2023-07-31T05:02:50;3.13;;;1.60;;
6823;SDS011;58633;49.470;11.004;2023-07-31T05:05:16;3.25;;;2.08;;
6823;SDS011;58633;49.470;11.004;2023-07-31T05:07:42;3.65;;;1.50;;
6823;SDS011;58633;49.470;11.004;2023-07-31T05:10:08;4.18;;;1.60;;
6823;SDS011;58633;49.470;11.004;2023-07-31T05:12:34;2.60;;;1.48;;
6823;SDS011;58633;49.470;11.004;2023-07-31T05:15:00;3.10;;;1.83;;
6823;SDS011;58633;49.470;11.004;2023-07-31T05:17:25;3.58;;;1.90;;
6823;SDS011;58633;49.470;11.004;2023-07-31T05:19:51;3.92;;;1.60;;
6823;SDS011;58633;49.470;11.004;2023-07-31T05:22:17;3.78;;;1.60;;
6823;SDS011;58633;49.470;11.004;2023-07-31T05:24:43;4.13;;;1.58;;
6823;SDS011;58633;49.470;11.004;2023-07-31T05:27:08;3.67;;;1.73;;
6823;SDS011;58633;49.470;11.004;2023-07-31T05:29:35;2.10;;;1.58;;
6823;SDS011;58633;49.470;11.004;2023-07-31T05:32:01;3.67;;;1.60;;
6823;SDS011;58633;49.470;11.004;2023-07-31T05:34:27;3.60;;;1.67;;
6823;SDS011;58633;49.470;11.004;2023-07-31T05:36:52;6.35;;;1.80;;
6823;SDS011;58633;49.470;11.004;2023-07-31T05:39:18;3.65;;;1.70;;
6823;SDS011;58633;49.470;11.004;2023-07-31T05:41:44;3.80;;;1.70;;
6823;SDS011;58633;49.470;11.004;2023-07-31T05:44:10;3.05;;;1.80;;
6823;SDS011;58633;49.470;11.004;2023-07-31T05:46:36;1.73;;;1.63;;
6823;SDS011;58633;49.470;11.004;2023-07-31T05:49:02;3.88;;;1.73;;
6823;SDS011;58633;49.470;11.004;2023-07-31T05:51:27;2.55;;;1.80;;
6823;SDS011;58633;49.470;11.004;2023-07-31T05:53:53;2.10;;;1.67;;
6823;SDS011;58633;49.470;11.004;2023-07-31T05:56:19;1.65;;;1.55;;
6823;SDS011;58633;49.470;11.004;2023-07-31T05:58:44;2.55;;;1.63;;
6823;SDS011;58633;49.470;11.004;2023-07-31T06:01:10;4.60;;;2.03;;
6823;SDS011;58633;49.470;11.004;2023-07-31T06:03:35;3.20;;;1.80;;
6823;SDS011;58633;49.470;11.004;2023-07-31T06:06:01;5.15;;;1.90;;
6823;SDS011;58633;49.470;11.004;2023-07-31T06:08:26;9.00;;;1.98;;
6823;SDS011;58633;49.470;11.004;2023-07-31T06:10:52;5.53;;;2.03;;
6823;SDS011;58633;49.470;11.004;2023-07-31T06:13:17;9.65;;;2.00;;
6823;SDS011;58633;49.470;11.004;2023-07-31T06:15:43;6.60;;;2.30;;
6823;SDS011;58633;49.470;11.004;2023-07-31T06:18:08;4.50;;;1.75;;
6823;SDS011;58633;49.470;11.004;2023-07-31T06:20:35;5.53;;;1.92;;
6823;SDS011;58633;49.470;11.004;2023-07-31T06:23:01;5.50;;;2.08;;
6823;SDS011;58633;49.470;11.004;2023-07-31T06:25:27;3.92;;;2.17;;
6823;SDS011;58633;49.470;11.004;2023-07-31T06:27:52;5.18;;;1.70;;
6823;SDS011;58633;49.470;11.004;2023-07-31T06:30:18;3.30;;;1.90;;
6823;SDS011;58633;49.470;11.004;2023-07-31T06:32:44;5.95;;;2.10;;
6823;SDS011;58633;49.470;11.004;2023-07-31T06:35:09;9.48;;;2.30;;
6823;SDS011;58633;49.470;11.004;2023-07-31T06:37:35;3.22;;;1.70;;
6823;SDS011;58633;49.470;11.004;2023-07-31T06:40:00;4.57;;;1.77;;
6823;SDS011;58633;49.470;11.004;2023-07-31T06:42:26;4.60;;;1.67;;
6823;SDS011;58633;49.470;11.004;2023-07-31T06:44:52;4.57;;;1.98;;
6823;SDS011;58633;49.470;11.004;2023-07-31T06:47:17;6.97;;;1.83;;
6823;SDS011;58633;49.470;11.004;2023-07-31T06:49:43;4.30;;;1.95;;
6823;SDS011;58633;49.470;11.004;2023-07-31T06:52:09;4.40;;;1.80;;
6823;SDS011;58633;49.470;11.004;2023-07-31T06:54:36;3.70;;;1.67;;
6823;SDS011;58633;49.470;11.004;2023-07-31T06:57:01;4.50;;;1.75;;
6823;SDS011;58633;49.470;11.004;2023-07-31T06:59:28;5.45;;;1.92;;
6823;SDS011;58633;49.470;11.004;2023-07-31T07:01:54;4.32;;;1.85;;
6823;SDS011;58633;49.470;11.004;2023-07-31T07:04:19;3.92;;;1.70;;
6823;SDS011;58633;49.470;11.004;2023-07-31T07:06:45;3.03;;;1.45;;
6823;SDS011;58633;49.470;11.004;2023-07-31T07:09:11;4.03;;;1.77;;
6823;SDS011;58633;49.470;11.004;2023-07-31T07:11:37;3.03;;;1.88;;
6823;SDS011;58633;49.470;11.004;2023-07-31T07:14:02;5.45;;;1.80;;
6823;SDS011;58633;49.470;11.004;2023-07-31T07:16:28;5.45;;;1.80;;
6823;SDS011;58633;49.470;11.004;2023-07-31T07:18:54;5.30;;;1.90;;
6823;SDS011;58633;49.470;11.004;2023-07-31T07:21:20;3.90;;;1.98;;
6823;SDS011;58633;49.470;11.004;2023-07-31T07:23:45;2.80;;;1.60;;
6823;SDS011;58633;49.470;11.004;2023-07-31T07:26:11;5.32;;;1.90;;
6823;SDS011;58633;49.470;11.004;2023-07-31T07:28:36;4.43;;;2.08;;
6823;SDS011;58633;49.470;11.004;2023-07-31T07:31:02;6.45;;;1.73;;
6823;SDS011;58633;49.470;11.004;2023-07-31T07:33:28;1.52;;;1.42;;
6823;SDS011;58633;49.470;11.004;2023-07-31T07:35:53;4.82;;;1.70;;
6823;SDS011;58633;49.470;11.004;2023-07-31T07:38:19;2.95;;;1.52;;
6823;SDS011;58633;49.470;11.004;2023-07-31T07:40:44;3.95;;;1.80;;
6823;SDS011;58633;49.470;11.004;2023-07-31T07:43:11;4.65;;;1.63;;
6823;SDS011;58633;49.470;11.004;2023-07-31T07:45:37;2.60;;;1.52;;
6823;SDS011;58633;49.470;11.004;2023-07-31T07:48:02;3.20;;;1.83;;
6823;SDS011;58633;49.470;11.004;2023-07-31T07:50:28;3.35;;;1.80;;
6823;SDS011;58633;49.470;11.004;2023-07-31T07:52:54;5.35;;;2.05;;
6823;SDS011;58633;49.470;11.004;2023-07-31T07:55:20;2.80;;;1.70;;
6823;SDS011;58633;49.470;11.004;2023-07-31T07:57:45;3.10;;;1.77;;
6823;SDS011;58633;49.470;11.004;2023-07-31T08:00:12;4.00;;;2.05;;
6823;SDS011;58633;49.470;11.004;2023-07-31T08:02:38;6.38;;;2.28;;
6823;SDS011;58633;49.470;11.004;2023-07-31T08:05:03;6.20;;;1.95;;
6823;SDS011;58633;49.470;11.004;2023-07-31T08:07:29;10.05;;;2.00;;
6823;SDS011;58633;49.470;11.004;2023-07-31T08:09:55;4.47;;;1.67;;
6823;SDS011;58633;49.470;11.004;2023-07-31T08:12:20;3.50;;;1.70;;
6823;SDS011;58633;49.470;11.004;2023-07-31T08:14:46;4.75;;;1.90;;
6823;SDS011;58633;49.470;11.004;2023-07-31T08:17:12;4.32;;;1.80;;
6823;SDS011;58633;49.470;11.004;2023-07-31T08:19:38;2.85;;;1.80;;
6823;SDS011;58633;49.470;11.004;2023-07-31T08:22:03;3.75;;;1.83;;
6823;SDS011;58633;49.470;11.004;2023-07-31T08:24:29;4.75;;;2.03;;
6823;SDS011;58633;49.470;11.004;2023-07-31T08:26:55;3.88;;;1.58;;
6823;SDS011;58633;49.470;11.004;2023-07-31T08:29:20;3.97;;;2.13;;
6823;SDS011;58633;49.470;11.004;2023-07-31T08:31:46;3.70;;;1.77;;
6823;SDS011;58633;49.470;11.004;2023-07-31T08:34:11;4.65;;;1.90;;
6823;SDS011;58633;49.470;11.004;2023-07-31T08:36:37;3.15;;;1.75;;
6823;SDS011;58633;49.470;11.004;2023-07-31T08:39:03;4.80;;;2.00;;
6823;SDS011;58633;49.470;11.004;2023-07-31T08:41:28;4.18;;;1.90;;
6823;SDS011;58633;49.470;11.004;2023-07-31T08:43:54;4.22;;;1.90;;
6823;SDS011;58633;49.470;11.004;2023-07-31T08:46:21;3.47;;;1.80;;
6823;SDS011;58633;49.470;11.004;2023-07-31T08:48:47;4.05;;;1.80;;
6823;SDS011;58633;49.470;11.004;2023-07-31T08:51:14;3.97;;;1.83;;
6823;SDS011;58633;49.470;11.004;2023-07-31T08:53:40;5.60;;;2.00;;
6823;SDS011;58633;49.470;11.004;2023-07-31T08:56:06;5.10;;;1.77;;
6823;SDS011;58633;49.470;11.004;2023-07-31T08:58:32;2.75;;;1.70;;
6823;SDS011;58633;49.470;11.004;2023-07-31T09:01:01;4.97;;;1.95;;
6823;SDS011;58633;49.470;11.004;2023-07-31T09:03:29;3.05;;;1.80;;
6823;SDS011;58633;49.470;11.004;2023-07-31T09:05:58;5.00;;;1.80;;
6823;SDS011;58633;49.470;11.004;2023-07-31T09:08:24;2.30;;;1.77;;
6823;SDS011;58633;49.470;11.004;2023-07-31T09:10:58;5.20;;;1.90;;
6823;SDS011;58633;49.470;11.004;2023-07-31T09:13:27;5.28;;;1.55;;
6823;SDS011;58633;49.470;11.004;2023-07-31T09:15:54;3.30;;;1.70;;
6823;SDS011;58633;49.470;11.004;2023-07-31T09:18:19;3.90;;;1.58;;
6823;SDS011;58633;49.470;11.004;2023-07-31T09:20:59;5.70;;;1.70;;
6823;SDS011;58633;49.470;11.004;2023-07-31T09:23:44;4.53;;;1.90;;
6823;SDS011;58633;49.470;11.004;2023-07-31T09:26:28;4.97;;;1.73;;
6823;SDS011;58633;49.470;11.004;2023-07-31T09:29:00;4.40;;;1.58;;
6823;SDS011;58633;49.470;11.004;2023-07-31T09:31:38;3.55;;;1.90;;
6823;SDS011;58633;49.470;11.004;2023-07-31T09:34:07;4.50;;;1.80;;
6823;SDS011;58633;49.470;11.004;2023-07-31T09:36:39;4.40;;;1.80;;
6823;SDS011;58633;49.470;11.004;2023-07-31T09:39:09;4.25;;;1.85;;
6823;SDS011;58633;49.470;11.004;2023-07-31T09:41:36;4.20;;;1.83;;
6823;SDS011;58633;49.470;11.004;2023-07-31T09:44:03;3.53;;;1.90;;
6823;SDS011;58633;49.470;11.004;2023-07-31T09:46:29;3.42;;;1.90;;
6823;SDS011;58633;49.470;11.004;2023-07-31T09:49:05;3.47;;;1.65;;
6823;SDS011;58633;49.470;11.004;2023-07-31T09:51:35;6.82;;;2.15;;
6823;SDS011;58633;49.470;11.004;2023-07-31T09:54:13;5.43;;;1.95;;
6823;SDS011;58633;49.470;11.004;2023-07-31T09:56:48;2.15;;;1.65;;
6823;SDS011;58633;49.470;11.004;2023-07-31T09:59:15;3.28;;;1.65;;
6823;SDS011;58633;49.470;11.004;2023-07-31T10:01:43;2.90;;;1.67;;
6823;SDS011;58633;49.470;11.004;2023-07-31T10:04:10;2.95;;;1.70;;
6823;SDS011;58633;49.470;11.004;2023-07-31T10:06:36;3.58;;;1.70;;
6823;SDS011;58633;49.470;11.004;2023-07-31T10:09:05;2.67;;;1.80;;
6823;SDS011;58633;49.470;11.004;2023-07-31T10:11:37;2.63;;;1.70;;
6823;SDS011;58633;49.470;11.004;2023-07-31T10:14:09;2.85;;;2.00;;
6823;SDS011;58633;49.470;11.004;2023-07-31T10:16:37;3.05;;;1.55;;
6823;SDS011;58633;49.470;11.004;2023-07-31T10:19:03;3.17;;;1.60;;
6823;SDS011;58633;49.470;11.004;2023-07-31T10:21:31;3.42;;;1.60;;
6823;SDS011;58633;49.470;11.004;2023-07-31T10:24:01;3.03;;;1.95;;
6823;SDS011;58633;49.470;11.004;2023-07-31T10:26:28;3.67;;;1.90;;
6823;SDS011;58633;49.470;11.004;2023-07-31T10:29:00;4.25;;;1.70;;
6823;SDS011;58633;49.470;11.004;2023-07-31T10:31:26;4.78;;;1.73;;
6823;SDS011;58633;49.470;11.004;2023-07-31T10:33:53;5.40;;;1.77;;
6823;SDS011;58633;49.470;11.004;2023-07-31T10:36:20;2.33;;;1.65;;
6823;SDS011;58633;49.470;11.004;2023-07-31T10:38:48;2.38;;;1.58;;
6823;SDS011;58633;49.470;11.004;2023-07-31T10:41:14;3.10;;;1.92;;
6823;SDS011;58633;49.470;11.004;2023-07-31T10:43:40;5.95;;;1.90;;
6823;SDS011;58633;49.470;11.004;2023-07-31T10:46:09;2.20;;;1.77;;
6823;SDS011;58633;49.470;11.004;2023-07-31T10:48:38;3.63;;;2.20;;
6823;SDS011;58633;49.470;11.004;2023-07-31T10:51:06;3.42;;;1.70;;
6823;SDS011;58633;49.470;11.004;2023-07-31T10:53:33;5.30;;;1.92;;
6823;SDS011;58633;49.470;11.004;2023-07-31T10:56:00;2.55;;;1.67;;
6823;SDS011;58633;49.470;11.004;2023-07-31T10:58:26;3.47;;;1.52;;
6823;SDS011;58633;49.470;11.004;2023-07-31T11:00:54;3.38;;;1.88;;
6823;SDS011;58633;49.470;11.004;2023-07-31T11:03:24;3.38;;;1.80;;
6823;SDS011;58633;49.470;11.004;2023-07-31T11:05:51;4.20;;;1.98;;
6823;SDS011;58633;49.470;11.004;2023-07-31T11:08:20;2.70;;;1.92;;
6823;SDS011;58633;49.470;11.004;2023-07-31T11:10:47;3.17;;;1.75;;
6823;SDS011;58633;49.470;11.004;2023-07-31T11:13:14;3.10;;;1.90;;
6823;SDS011;58633;49.470;11.004;2023-07-31T11:15:40;3.58;;;1.90;;
6823;SDS011;58633;49.470;11.004;2023-07-31T11:18:06;2.78;;;1.73;;
6823;SDS011;58633;49.470;11.004;2023-07-31T11:20:33;2.60;;;2.00;;
6823;SDS011;58633;49.470;11.004;2023-07-31T11:23:04;3.03;;;1.90;;
6823;SDS011;58633;49.470;11.004;2023-07-31T11:25:32;2.72;;;1.80;;
6823;SDS011;58633;49.470;11.004;2023-07-31T11:28:04;3.13;;;2.20;;
6823;SDS011;58633;49.470;11.004;2023-07-31T11:30:31;3.65;;;1.67;;
6823;SDS011;58633;49.470;11.004;2023-07-31T11:32:57;3.35;;;2.00;;
6823;SDS011;58633;49.470;11.004;2023-07-31T11:35:23;3.35;;;2.17;;
6823;SDS011;58633;49.470;11.004;2023-07-31T11:37:49;3.75;;;1.88;;
6823;SDS011;58633;49.470;11.004;2023-07-31T11:40:14;6.20;;;1.98;;
6823;SDS011;58633;49.470;11.004;2023-07-31T11:42:40;3.88;;;2.03;;
6823;SDS011;58633;49.470;11.004;2023-07-31T11:45:07;4.35;;;2.00;;
6823;SDS011;58633;49.470;11.004;2023-07-31T11:47:34;5.15;;;2.47;;
6823;SDS011;58633;49.470;11.004;2023-07-31T11:50:01;4.82;;;2.13;;
6823;SDS011;58633;49.470;11.004;2023-07-31T11:52:32;3.75;;;1.95;;
6823;SDS011;58633;49.470;11.004;2023-07-31T11:55:01;3.20;;;2.10;;
6823;SDS011;58633;49.470;11.004;2023-07-31T11:57:27;3.15;;;1.83;;
6823;SDS011;58633;49.470;11.004;2023-07-31T11:59:54;4.63;;;2.00;;
6823;SDS011;58633;49.470;11.004;2023-07-31T12:02:20;5.43;;;2.22;;
6823;SDS011;58633;49.470;11.004;2023-07-31T12:04:46;6.88;;;2.55;;
6823;SDS011;58633;49.470;11.004;2023-07-31T12:07:13;3.03;;;2.00;;
6823;SDS011;58633;49.470;11.004;2023-07-31T12:09:38;2.70;;;2.00;;
6823;SDS011;58633;49.470;11.004;2023-07-31T12:12:19;6.93;;;1.90;;
6823;SDS011;58633;49.470;11.004;2023-07-31T12:14:46;5.43;;;2.25;;
6823;SDS011;58633;49.470;11.004;2023-07-31T12:17:11;3.30;;;2.05;;
6823;SDS011;58633;49.470;11.004;2023-07-31T12:19:37;4.20;;;2.10;;
6823;SDS011;58633;49.470;11.004;2023-07-31T12:22:10;3.75;;;1.90;;
6823;SDS011;58633;49.470;11.004;2023-07-31T12:24:43;4.30;;;2.33;;
6823;SDS011;58633;49.470;11.004;2023-07-31T12:27:12;3.58;;;2.03;;
6823;SDS011;58633;49.470;11.004;2023-07-31T12:29:40;2.40;;;1.80;;
6823;SDS011;58633;49.470;11.004;2023-07-31T12:32:24;4.72;;;2.20;;
6823;SDS011;58633;49.470;11.004;2023-07-31T12:34:50;10.18;;;2.58;;
6823;SDS011;58633;49.470;11.004;2023-07-31T12:37:16;4.93;;;2.03;;
6823;SDS011;58633;49.470;11.004;2023-07-31T12:39:42;3.00;;;2.30;;
6823;SDS011;58633;49.470;11.004;2023-07-31T12:42:08;4.32;;;2.03;;
6823;SDS011;58633;49.470;11.004;2023-07-31T12:44:33;4.45;;;2.50;;
6823;SDS011;58633;49.470;11.004;2023-07-31T12:46:59;4.50;;;2.50;;
6823;SDS011;58633;49.470;11.004;2023-07-31T12:49:25;4.18;;;2.20;;
6823;SDS011;58633;49.470;11.004;2023-07-31T12:51:50;3.35;;;2.03;;
6823;SDS011;58633;49.470;11.004;2023-07-31T12:54:16;5.55;;;2.20;;
6823;SDS011;58633;49.470;11.004;2023-07-31T12:56:41;4.25;;;2.10;;
6823;SDS011;58633;49.470;11.004;2023-07-31T12:59:07;4.10;;;2.55;;
6823;SDS011;58633;49.470;11.004;2023-07-31T13:01:32;4.15;;;1.95;;
6823;SDS011;58633;49.470;11.004;2023-07-31T13:03:58;2.45;;;1.88;;
6823;SDS011;58633;49.470;11.004;2023-07-31T13:06:24;4.45;;;2.00;;
6823;SDS011;58633;49.470;11.004;2023-07-31T13:08:50;3.95;;;2.03;;
6823;SDS011;58633;49.470;11.004;2023-07-31T13:11:16;3.45;;;2.10;;
6823;SDS011;58633;49.470;11.004;2023-07-31T13:13:42;2.25;;;1.80;;
6823;SDS011;58633;49.470;11.004;2023-07-31T13:16:07;4.78;;;2.00;;
6823;SDS011;58633;49.470;11.004;2023-07-31T13:18:33;3.58;;;2.10;;
6823;SDS011;58633;49.470;11.004;2023-07-31T13:20:58;4.05;;;2.13;;
6823;SDS011;58633;49.470;11.004;2023-07-31T13:23:24;2.30;;;2.00;;
6823;SDS011;58633;49.470;11.004;2023-07-31T13:25:49;2.92;;;1.85;;
6823;SDS011;58633;49.470;11.004;2023-07-31T13:28:15;4.25;;;2.00;;
6823;SDS011;58633;49.470;11.004;2023-07-31T13:30:41;4.30;;;2.33;;
6823;SDS011;58633;49.470;11.004;2023-07-31T13:33:06;4.75;;;2.30;;
6823;SDS011;58633;49.470;11.004;2023-07-31T13:35:32;3.50;;;2.00;;
6823;SDS011;58633;49.470;11.004;2023-07-31T13:37:57;3.50;;;2.28;;
6823;SDS011;58633;49.470;11.004;2023-07-31T13:40:23;2.55;;;2.08;;
6823;SDS011;58633;49.470;11.004;2023-07-31T13:42:48;3.00;;;2.10;;
6823;SDS011;58633;49.470;11.004;2023-07-31T13:45:14;2.55;;;1.90;;
6823;SDS011;58633;49.470;11.004;2023-07-31T13:47:40;2.88;;;2.08;;
6823;SDS011;58633;49.470;11.004;2023-07-31T13:50:05;4.00;;;2.45;;
6823;SDS011;58633;49.470;11.004;2023-07-31T13:52:31;4.28;;;2.15;;
6823;SDS011;58633;49.470;11.004;2023-07-31T13:54:57;3.72;;;2.17;;
6823;SDS011;58633;49.470;11.004;2023-07-31T13:57:22;3.20;;;2.20;;
6823;SDS011;58633;49.470;11.004;2023-07-31T13:59:48;4.72;;;2.40;;
6823;SDS011;58633;49.470;11.004;2023-07-31T14:02:14;4.20;;;2.28;;
6823;SDS011;58633;49.470;11.004;2023-07-31T14:04:40;4.32;;;2.00;;
6823;SDS011;58633;49.470;11.004;2023-07-31T14:07:05;4.35;;;2.33;;
6823;SDS011;58633;49.470;11.004;2023-07-31T14:09:31;3.67;;;2.45;;
6823;SDS011;58633;49.470;11.004;2023-07-31T14:11:57;2.53;;;1.98;;
6823;SDS011;58633;49.470;11.004;2023-07-31T14:14:22;3.80;;;2.20;;
6823;SDS011;58633;49.470;11.004;2023-07-31T14:16:48;4.25;;;2.17;;
6823;SDS011;58633;49.470;11.004;2023-07-31T14:19:13;3.63;;;2.08;;
6823;SDS011;58633;49.470;11.004;2023-07-31T14:21:39;2.33;;;1.90;;
6823;SDS011;58633;49.470;11.004;2023-07-31T14:24:05;3.15;;;2.03;;
6823;SDS011;58633;49.470;11.004;2023-07-31T14:26:30;3.38;;;2.00;;
6823;SDS011;58633;49.470;11.004;2023-07-31T14:28:56;4.70;;;2.38;;
6823;SDS011;58633;49.470;11.004;2023-07-31T14:31:22;3.13;;;2.00;;
6823;SDS011;58633;49.470;11.004;2023-07-31T14:33:48;11.68;;;2.20;;
6823;SDS011;58633;49.470;11.004;2023-07-31T14:36:14;3.80;;;2.72;;
6823;SDS011;58633;49.470;11.004;2023-07-31T14:38:40;3.15;;;2.25;;
6823;SDS011;58633;49.470;11.004;2023-07-31T14:41:05;5.40;;;2.55;;
6823;SDS011;58633;49.470;11.004;2023-07-31T14:43:31;3.42;;;2.47;;
6823;SDS011;58633;49.470;11.004;2023-07-31T14:45:57;2.15;;;1.85;;
6823;SDS011;58633;49.470;11.004;2023-07-31T14:48:24;2.65;;;2.10;;